Terminal Aerodrome Forecast
Issued by NWS

Home | Current Version | Previous Version | Text Only | Print | Product List | Glossary On
Versions: 1 2 3 4 5 6 7 8 9 10 11 12 13 14 15
082
FTUS43 KABR 210520
TAFPIR
TAF
KPIR 210520Z 2106/2206 14008KT P6SM SKC
     FM210900 20006KT P6SM FEW250 WS020/25035KT
     FM211300 21006KT P6SM FEW250
     FM211700 26010KT P6SM FEW250
     FM212300 22006KT P6SM FEW250=

USA.gov is the U.S. government's official web portal to all federal, state and local government web resources and services.